sensor_id;sensor_type;location;lat;lon;timestamp;P1;durP1;ratioP1;P2;durP2;ratioP2
12663;SDS011;6396;58.490;15.528;2022-12-07T00:00:20;3.90;;;2.00;;
12663;SDS011;6396;58.490;15.528;2022-12-07T00:02:47;2.03;;;1.70;;
12663;SDS011;6396;58.490;15.528;2022-12-07T00:05:14;3.03;;;1.53;;
12663;SDS011;6396;58.490;15.528;2022-12-07T00:07:40;3.87;;;1.90;;
12663;SDS011;6396;58.490;15.528;2022-12-07T00:10:07;2.80;;;1.63;;
12663;SDS011;6396;58.490;15.528;2022-12-07T00:12:34;3.33;;;1.77;;
12663;SDS011;6396;58.490;15.528;2022-12-07T00:15:01;5.00;;;2.17;;
12663;SDS011;6396;58.490;15.528;2022-12-07T00:17:29;4.43;;;1.63;;
12663;SDS011;6396;58.490;15.528;2022-12-07T00:19:56;2.07;;;1.87;;
12663;SDS011;6396;58.490;15.528;2022-12-07T00:22:23;3.80;;;1.60;;
12663;SDS011;6396;58.490;15.528;2022-12-07T00:24:50;5.20;;;1.83;;
12663;SDS011;6396;58.490;15.528;2022-12-07T00:27:16;2.60;;;1.73;;
12663;SDS011;6396;58.490;15.528;2022-12-07T00:29:43;4.47;;;1.87;;
12663;SDS011;6396;58.490;15.528;2022-12-07T00:32:10;2.70;;;1.60;;
12663;SDS011;6396;58.490;15.528;2022-12-07T00:34:38;4.53;;;1.63;;
12663;SDS011;6396;58.490;15.528;2022-12-07T00:37:05;4.53;;;1.70;;
12663;SDS011;6396;58.490;15.528;2022-12-07T00:39:32;7.37;;;2.50;;
12663;SDS011;6396;58.490;15.528;2022-12-07T00:41:59;4.27;;;1.90;;
12663;SDS011;6396;58.490;15.528;2022-12-07T00:44:25;2.73;;;1.73;;
12663;SDS011;6396;58.490;15.528;2022-12-07T00:46:52;3.70;;;1.90;;
12663;SDS011;6396;58.490;15.528;2022-12-07T00:49:20;6.97;;;1.97;;
12663;SDS011;6396;58.490;15.528;2022-12-07T00:51:49;3.93;;;1.83;;
12663;SDS011;6396;58.490;15.528;2022-12-07T00:54:15;3.43;;;1.93;;
12663;SDS011;6396;58.490;15.528;2022-12-07T00:56:42;4.37;;;2.13;;
12663;SDS011;6396;58.490;15.528;2022-12-07T00:59:10;3.20;;;1.80;;
12663;SDS011;6396;58.490;15.528;2022-12-07T01:01:39;3.73;;;1.87;;
12663;SDS011;6396;58.490;15.528;2022-12-07T01:04:05;4.00;;;1.73;;
12663;SDS011;6396;58.490;15.528;2022-12-07T01:06:33;3.37;;;1.70;;
12663;SDS011;6396;58.490;15.528;2022-12-07T01:09:01;1.63;;;1.50;;
12663;SDS011;6396;58.490;15.528;2022-12-07T01:11:30;3.70;;;1.73;;
12663;SDS011;6396;58.490;15.528;2022-12-07T01:13:58;2.47;;;1.67;;
12663;SDS011;6396;58.490;15.528;2022-12-07T01:16:26;2.60;;;1.63;;
12663;SDS011;6396;58.490;15.528;2022-12-07T01:18:55;2.87;;;1.60;;
12663;SDS011;6396;58.490;15.528;2022-12-07T01:21:24;2.80;;;1.90;;
12663;SDS011;6396;58.490;15.528;2022-12-07T01:23:52;4.73;;;1.90;;
12663;SDS011;6396;58.490;15.528;2022-12-07T01:26:21;2.77;;;1.83;;
12663;SDS011;6396;58.490;15.528;2022-12-07T01:28:49;3.87;;;2.03;;
12663;SDS011;6396;58.490;15.528;2022-12-07T01:31:17;3.47;;;1.80;;
12663;SDS011;6396;58.490;15.528;2022-12-07T01:33:45;3.73;;;2.23;;
12663;SDS011;6396;58.490;15.528;2022-12-07T01:36:14;3.43;;;1.83;;
12663;SDS011;6396;58.490;15.528;2022-12-07T01:38:42;4.87;;;1.83;;
12663;SDS011;6396;58.490;15.528;2022-12-07T01:41:09;4.33;;;1.53;;
12663;SDS011;6396;58.490;15.528;2022-12-07T01:46:38;3.57;;;1.70;;
12663;SDS011;6396;58.490;15.528;2022-12-07T01:49:06;5.60;;;2.07;;
12663;SDS011;6396;58.490;15.528;2022-12-07T01:51:36;3.10;;;1.83;;
12663;SDS011;6396;58.490;15.528;2022-12-07T01:54:06;2.67;;;1.40;;
12663;SDS011;6396;58.490;15.528;2022-12-07T01:56:33;4.37;;;1.50;;
12663;SDS011;6396;58.490;15.528;2022-12-07T01:59:01;3.00;;;1.70;;
12663;SDS011;6396;58.490;15.528;2022-12-07T02:01:27;3.77;;;1.73;;
12663;SDS011;6396;58.490;15.528;2022-12-07T02:03:56;2.77;;;1.60;;
12663;SDS011;6396;58.490;15.528;2022-12-07T02:06:24;3.60;;;1.53;;
12663;SDS011;6396;58.490;15.528;2022-12-07T02:08:52;3.40;;;2.00;;
12663;SDS011;6396;58.490;15.528;2022-12-07T02:11:19;4.50;;;2.20;;
12663;SDS011;6396;58.490;15.528;2022-12-07T02:13:47;4.37;;;1.87;;
12663;SDS011;6396;58.490;15.528;2022-12-07T02:16:18;3.93;;;1.67;;
12663;SDS011;6396;58.490;15.528;2022-12-07T02:18:57;6.27;;;2.10;;
12663;SDS011;6396;58.490;15.528;2022-12-07T02:21:40;3.83;;;1.90;;
12663;SDS011;6396;58.490;15.528;2022-12-07T02:24:30;5.17;;;1.93;;
12663;SDS011;6396;58.490;15.528;2022-12-07T02:27:23;2.13;;;1.70;;
12663;SDS011;6396;58.490;15.528;2022-12-07T02:30:08;3.20;;;1.60;;
12663;SDS011;6396;58.490;15.528;2022-12-07T02:32:39;6.80;;;2.07;;
12663;SDS011;6396;58.490;15.528;2022-12-07T02:35:11;3.00;;;1.53;;
12663;SDS011;6396;58.490;15.528;2022-12-07T02:37:47;2.67;;;1.63;;
12663;SDS011;6396;58.490;15.528;2022-12-07T02:40:22;3.50;;;2.20;;
12663;SDS011;6396;58.490;15.528;2022-12-07T02:42:55;4.53;;;1.77;;
12663;SDS011;6396;58.490;15.528;2022-12-07T02:45:29;5.53;;;1.77;;
12663;SDS011;6396;58.490;15.528;2022-12-07T02:47:58;3.53;;;1.90;;
12663;SDS011;6396;58.490;15.528;2022-12-07T02:50:27;5.70;;;1.80;;
12663;SDS011;6396;58.490;15.528;2022-12-07T02:52:54;2.33;;;1.77;;
12663;SDS011;6396;58.490;15.528;2022-12-07T02:55:22;2.70;;;2.00;;
12663;SDS011;6396;58.490;15.528;2022-12-07T02:57:59;4.30;;;1.77;;
12663;SDS011;6396;58.490;15.528;2022-12-07T03:00:37;3.63;;;1.90;;
12663;SDS011;6396;58.490;15.528;2022-12-07T03:03:13;4.63;;;1.90;;
12663;SDS011;6396;58.490;15.528;2022-12-07T03:08:36;2.37;;;1.73;;
12663;SDS011;6396;58.490;15.528;2022-12-07T03:11:10;3.03;;;1.57;;
12663;SDS011;6396;58.490;15.528;2022-12-07T03:13:41;5.03;;;1.87;;
12663;SDS011;6396;58.490;15.528;2022-12-07T03:16:17;3.60;;;1.63;;
12663;SDS011;6396;58.490;15.528;2022-12-07T03:18:48;4.93;;;1.97;;
12663;SDS011;6396;58.490;15.528;2022-12-07T03:21:19;3.50;;;1.87;;
12663;SDS011;6396;58.490;15.528;2022-12-07T03:23:50;3.90;;;2.00;;
12663;SDS011;6396;58.490;15.528;2022-12-07T03:26:20;4.30;;;2.43;;
12663;SDS011;6396;58.490;15.528;2022-12-07T03:28:50;8.13;;;2.20;;
12663;SDS011;6396;58.490;15.528;2022-12-07T03:31:22;4.37;;;1.97;;
12663;SDS011;6396;58.490;15.528;2022-12-07T03:33:53;3.03;;;1.87;;
12663;SDS011;6396;58.490;15.528;2022-12-07T03:36:26;3.43;;;1.70;;
12663;SDS011;6396;58.490;15.528;2022-12-07T03:39:00;3.63;;;2.17;;
12663;SDS011;6396;58.490;15.528;2022-12-07T03:41:35;5.07;;;2.07;;
12663;SDS011;6396;58.490;15.528;2022-12-07T03:44:04;2.90;;;2.07;;
12663;SDS011;6396;58.490;15.528;2022-12-07T03:46:36;2.23;;;1.60;;
12663;SDS011;6396;58.490;15.528;2022-12-07T03:49:12;5.57;;;2.23;;
12663;SDS011;6396;58.490;15.528;2022-12-07T03:51:45;3.93;;;2.20;;
12663;SDS011;6396;58.490;15.528;2022-12-07T03:54:18;4.37;;;2.23;;
12663;SDS011;6396;58.490;15.528;2022-12-07T03:56:49;4.60;;;2.30;;
12663;SDS011;6396;58.490;15.528;2022-12-07T03:59:18;4.30;;;2.33;;
12663;SDS011;6396;58.490;15.528;2022-12-07T04:01:52;5.37;;;2.10;;
12663;SDS011;6396;58.490;15.528;2022-12-07T04:04:20;3.47;;;2.10;;
12663;SDS011;6396;58.490;15.528;2022-12-07T04:06:48;3.03;;;1.97;;
12663;SDS011;6396;58.490;15.528;2022-12-07T04:09:15;4.73;;;2.30;;
12663;SDS011;6396;58.490;15.528;2022-12-07T04:11:42;2.97;;;1.93;;
12663;SDS011;6396;58.490;15.528;2022-12-07T04:14:09;3.10;;;2.00;;
12663;SDS011;6396;58.490;15.528;2022-12-07T04:16:46;5.23;;;2.37;;
12663;SDS011;6396;58.490;15.528;2022-12-07T04:19:14;3.50;;;2.20;;
12663;SDS011;6396;58.490;15.528;2022-12-07T04:21:42;4.37;;;2.43;;
12663;SDS011;6396;58.490;15.528;2022-12-07T04:24:10;4.90;;;2.57;;
12663;SDS011;6396;58.490;15.528;2022-12-07T04:26:38;5.20;;;2.40;;
12663;SDS011;6396;58.490;15.528;2022-12-07T04:29:05;4.10;;;2.10;;
12663;SDS011;6396;58.490;15.528;2022-12-07T04:31:32;6.23;;;2.57;;
12663;SDS011;6396;58.490;15.528;2022-12-07T04:33:58;5.33;;;2.53;;
12663;SDS011;6396;58.490;15.528;2022-12-07T04:36:27;4.47;;;2.70;;
12663;SDS011;6396;58.490;15.528;2022-12-07T04:38:53;6.20;;;2.40;;
12663;SDS011;6396;58.490;15.528;2022-12-07T04:41:21;3.77;;;2.57;;
12663;SDS011;6396;58.490;15.528;2022-12-07T04:43:52;4.43;;;2.13;;
12663;SDS011;6396;58.490;15.528;2022-12-07T04:46:20;4.40;;;2.27;;
12663;SDS011;6396;58.490;15.528;2022-12-07T04:48:47;5.43;;;2.57;;
12663;SDS011;6396;58.490;15.528;2022-12-07T04:51:14;4.50;;;2.20;;
12663;SDS011;6396;58.490;15.528;2022-12-07T04:53:46;8.07;;;2.63;;
12663;SDS011;6396;58.490;15.528;2022-12-07T04:56:13;5.23;;;2.97;;
12663;SDS011;6396;58.490;15.528;2022-12-07T04:58:41;5.27;;;2.43;;
12663;SDS011;6396;58.490;15.528;2022-12-07T05:01:08;6.43;;;3.10;;
12663;SDS011;6396;58.490;15.528;2022-12-07T05:03:35;8.73;;;3.13;;
12663;SDS011;6396;58.490;15.528;2022-12-07T05:06:02;4.70;;;2.70;;
12663;SDS011;6396;58.490;15.528;2022-12-07T05:08:30;5.13;;;2.80;;
12663;SDS011;6396;58.490;15.528;2022-12-07T05:10:58;6.33;;;2.83;;
12663;SDS011;6396;58.490;15.528;2022-12-07T05:13:25;5.27;;;3.00;;
12663;SDS011;6396;58.490;15.528;2022-12-07T05:15:51;5.80;;;2.93;;
12663;SDS011;6396;58.490;15.528;2022-12-07T05:18:18;5.07;;;2.83;;
12663;SDS011;6396;58.490;15.528;2022-12-07T05:20:45;7.27;;;3.13;;
12663;SDS011;6396;58.490;15.528;2022-12-07T05:23:12;5.17;;;3.13;;
12663;SDS011;6396;58.490;15.528;2022-12-07T05:25:39;6.53;;;3.27;;
12663;SDS011;6396;58.490;15.528;2022-12-07T05:28:07;4.10;;;2.50;;
12663;SDS011;6396;58.490;15.528;2022-12-07T05:30:34;6.97;;;3.10;;
12663;SDS011;6396;58.490;15.528;2022-12-07T05:33:01;5.63;;;2.80;;
12663;SDS011;6396;58.490;15.528;2022-12-07T05:35:27;2.93;;;2.60;;
12663;SDS011;6396;58.490;15.528;2022-12-07T05:37:54;6.57;;;2.93;;
12663;SDS011;6396;58.490;15.528;2022-12-07T05:40:22;3.50;;;2.50;;
12663;SDS011;6396;58.490;15.528;2022-12-07T05:42:49;4.73;;;2.50;;
12663;SDS011;6396;58.490;15.528;2022-12-07T05:45:17;5.73;;;2.40;;
12663;SDS011;6396;58.490;15.528;2022-12-07T05:47:44;3.83;;;2.60;;
12663;SDS011;6396;58.490;15.528;2022-12-07T05:50:11;7.30;;;2.90;;
12663;SDS011;6396;58.490;15.528;2022-12-07T05:52:38;8.13;;;2.73;;
12663;SDS011;6396;58.490;15.528;2022-12-07T05:55:05;3.47;;;2.33;;
12663;SDS011;6396;58.490;15.528;2022-12-07T05:57:33;6.53;;;2.50;;
12663;SDS011;6396;58.490;15.528;2022-12-07T05:59:59;4.27;;;2.40;;
12663;SDS011;6396;58.490;15.528;2022-12-07T06:02:26;5.23;;;2.80;;
12663;SDS011;6396;58.490;15.528;2022-12-07T06:04:53;4.30;;;2.80;;
12663;SDS011;6396;58.490;15.528;2022-12-07T06:07:20;3.70;;;2.03;;
12663;SDS011;6396;58.490;15.528;2022-12-07T06:09:47;4.90;;;2.63;;
12663;SDS011;6396;58.490;15.528;2022-12-07T06:12:14;5.07;;;2.37;;
12663;SDS011;6396;58.490;15.528;2022-12-07T06:14:58;4.97;;;2.40;;
12663;SDS011;6396;58.490;15.528;2022-12-07T06:17:24;4.60;;;2.53;;
12663;SDS011;6396;58.490;15.528;2022-12-07T06:19:53;6.60;;;2.73;;
12663;SDS011;6396;58.490;15.528;2022-12-07T06:22:19;6.97;;;2.10;;
12663;SDS011;6396;58.490;15.528;2022-12-07T06:24:46;4.83;;;2.40;;
12663;SDS011;6396;58.490;15.528;2022-12-07T06:27:13;4.27;;;2.50;;
12663;SDS011;6396;58.490;15.528;2022-12-07T06:29:40;5.60;;;2.70;;
12663;SDS011;6396;58.490;15.528;2022-12-07T06:32:07;5.47;;;2.27;;
12663;SDS011;6396;58.490;15.528;2022-12-07T06:34:35;2.97;;;2.33;;
12663;SDS011;6396;58.490;15.528;2022-12-07T06:37:02;4.77;;;2.50;;
12663;SDS011;6396;58.490;15.528;2022-12-07T06:39:29;6.27;;;2.73;;
12663;SDS011;6396;58.490;15.528;2022-12-07T06:41:56;3.53;;;2.03;;
12663;SDS011;6396;58.490;15.528;2022-12-07T06:44:23;4.20;;;2.20;;
12663;SDS011;6396;58.490;15.528;2022-12-07T06:46:52;3.90;;;2.47;;
12663;SDS011;6396;58.490;15.528;2022-12-07T06:49:19;5.90;;;2.70;;
12663;SDS011;6396;58.490;15.528;2022-12-07T06:51:47;3.33;;;2.30;;
12663;SDS011;6396;58.490;15.528;2022-12-07T06:54:14;4.07;;;2.20;;
12663;SDS011;6396;58.490;15.528;2022-12-07T06:56:43;4.80;;;2.63;;
12663;SDS011;6396;58.490;15.528;2022-12-07T06:59:10;4.47;;;2.73;;
12663;SDS011;6396;58.490;15.528;2022-12-07T07:01:37;4.37;;;2.70;;
12663;SDS011;6396;58.490;15.528;2022-12-07T07:04:04;3.93;;;3.03;;
12663;SDS011;6396;58.490;15.528;2022-12-07T07:06:34;6.47;;;3.00;;
12663;SDS011;6396;58.490;15.528;2022-12-07T07:09:02;4.63;;;3.00;;
12663;SDS011;6396;58.490;15.528;2022-12-07T07:11:29;11.37;;;4.70;;
12663;SDS011;6396;58.490;15.528;2022-12-07T07:13:56;7.03;;;3.87;;
12663;SDS011;6396;58.490;15.528;2022-12-07T07:16:27;6.57;;;3.33;;
12663;SDS011;6396;58.490;15.528;2022-12-07T07:18:54;5.83;;;2.70;;
12663;SDS011;6396;58.490;15.528;2022-12-07T07:21:21;6.10;;;2.57;;
12663;SDS011;6396;58.490;15.528;2022-12-07T07:23:48;4.83;;;2.87;;
12663;SDS011;6396;58.490;15.528;2022-12-07T07:26:16;3.80;;;2.37;;
12663;SDS011;6396;58.490;15.528;2022-12-07T07:28:43;5.83;;;3.37;;
12663;SDS011;6396;58.490;15.528;2022-12-07T07:31:10;5.90;;;2.33;;
12663;SDS011;6396;58.490;15.528;2022-12-07T07:33:36;6.83;;;2.80;;
12663;SDS011;6396;58.490;15.528;2022-12-07T07:36:03;5.13;;;2.63;;
12663;SDS011;6396;58.490;15.528;2022-12-07T07:38:31;4.17;;;2.13;;
12663;SDS011;6396;58.490;15.528;2022-12-07T07:40:58;4.57;;;2.67;;
12663;SDS011;6396;58.490;15.528;2022-12-07T07:43:26;3.97;;;2.70;;
12663;SDS011;6396;58.490;15.528;2022-12-07T07:45:53;5.63;;;2.67;;
12663;SDS011;6396;58.490;15.528;2022-12-07T07:48:19;5.23;;;2.60;;
12663;SDS011;6396;58.490;15.528;2022-12-07T07:50:47;6.13;;;2.73;;
12663;SDS011;6396;58.490;15.528;2022-12-07T07:53:14;6.43;;;3.10;;
12663;SDS011;6396;58.490;15.528;2022-12-07T07:55:41;4.03;;;2.47;;
12663;SDS011;6396;58.490;15.528;2022-12-07T07:58:08;5.83;;;2.90;;
12663;SDS011;6396;58.490;15.528;2022-12-07T08:00:36;5.40;;;2.83;;
12663;SDS011;6396;58.490;15.528;2022-12-07T08:03:02;6.37;;;2.73;;
12663;SDS011;6396;58.490;15.528;2022-12-07T08:05:30;6.00;;;2.97;;
12663;SDS011;6396;58.490;15.528;2022-12-07T08:07:57;7.93;;;2.90;;
12663;SDS011;6396;58.490;15.528;2022-12-07T08:10:24;3.83;;;2.67;;
12663;SDS011;6396;58.490;15.528;2022-12-07T08:12:51;6.50;;;2.90;;
12663;SDS011;6396;58.490;15.528;2022-12-07T08:15:31;8.10;;;2.80;;
12663;SDS011;6396;58.490;15.528;2022-12-07T08:17:59;5.43;;;2.30;;
12663;SDS011;6396;58.490;15.528;2022-12-07T08:20:26;6.50;;;2.73;;
12663;SDS011;6396;58.490;15.528;2022-12-07T08:22:53;3.27;;;2.50;;
12663;SDS011;6396;58.490;15.528;2022-12-07T08:25:20;2.97;;;2.23;;
12663;SDS011;6396;58.490;15.528;2022-12-07T08:27:47;3.67;;;2.50;;
12663;SDS011;6396;58.490;15.528;2022-12-07T08:30:13;5.70;;;3.37;;
12663;SDS011;6396;58.490;15.528;2022-12-07T08:32:40;4.40;;;2.60;;
12663;SDS011;6396;58.490;15.528;2022-12-07T08:35:09;3.60;;;2.40;;
12663;SDS011;6396;58.490;15.528;2022-12-07T08:37:35;4.73;;;2.43;;
12663;SDS011;6396;58.490;15.528;2022-12-07T08:40:03;4.77;;;2.50;;
12663;SDS011;6396;58.490;15.528;2022-12-07T08:42:31;5.40;;;2.53;;
12663;SDS011;6396;58.490;15.528;2022-12-07T08:45:03;5.27;;;2.70;;
12663;SDS011;6396;58.490;15.528;2022-12-07T08:47:31;4.97;;;2.93;;
12663;SDS011;6396;58.490;15.528;2022-12-07T08:49:59;5.27;;;2.50;;
12663;SDS011;6396;58.490;15.528;2022-12-07T08:52:30;6.00;;;2.40;;
12663;SDS011;6396;58.490;15.528;2022-12-07T08:54:58;4.90;;;2.30;;
12663;SDS011;6396;58.490;15.528;2022-12-07T08:57:26;5.13;;;2.90;;
12663;SDS011;6396;58.490;15.528;2022-12-07T08:59:54;7.23;;;2.50;;
12663;SDS011;6396;58.490;15.528;2022-12-07T09:02:21;3.37;;;2.43;;
12663;SDS011;6396;58.490;15.528;2022-12-07T09:04:47;4.23;;;2.50;;
12663;SDS011;6396;58.490;15.528;2022-12-07T09:07:14;5.33;;;2.90;;
12663;SDS011;6396;58.490;15.528;2022-12-07T09:09:42;4.30;;;2.27;;
12663;SDS011;6396;58.490;15.528;2022-12-07T09:12:09;3.97;;;2.30;;
12663;SDS011;6396;58.490;15.528;2022-12-07T09:14:36;4.70;;;2.30;;
12663;SDS011;6396;58.490;15.528;2022-12-07T09:17:06;5.33;;;2.10;;
12663;SDS011;6396;58.490;15.528;2022-12-07T09:19:34;6.43;;;2.13;;
12663;SDS011;6396;58.490;15.528;2022-12-07T09:22:02;2.87;;;1.73;;
12663;SDS011;6396;58.490;15.528;2022-12-07T09:24:29;3.83;;;2.00;;
12663;SDS011;6396;58.490;15.528;2022-12-07T09:26:58;3.13;;;1.73;;
12663;SDS011;6396;58.490;15.528;2022-12-07T09:29:24;6.20;;;2.63;;
12663;SDS011;6396;58.490;15.528;2022-12-07T09:31:51;3.90;;;2.20;;
12663;SDS011;6396;58.490;15.528;2022-12-07T09:34:18;4.60;;;2.27;;
12663;SDS011;6396;58.490;15.528;2022-12-07T09:36:46;4.63;;;2.50;;
12663;SDS011;6396;58.490;15.528;2022-12-07T09:39:13;4.67;;;2.23;;
12663;SDS011;6396;58.490;15.528;2022-12-07T09:41:40;5.63;;;2.17;;
12663;SDS011;6396;58.490;15.528;2022-12-07T09:44:11;3.37;;;2.00;;
12663;SDS011;6396;58.490;15.528;2022-12-07T09:46:40;4.30;;;2.40;;
12663;SDS011;6396;58.490;15.528;2022-12-07T09:49:09;4.73;;;2.00;;
12663;SDS011;6396;58.490;15.528;2022-12-07T09:51:40;3.40;;;2.23;;
12663;SDS011;6396;58.490;15.528;2022-12-07T09:54:11;2.80;;;1.83;;
12663;SDS011;6396;58.490;15.528;2022-12-07T09:56:39;2.73;;;1.80;;
12663;SDS011;6396;58.490;15.528;2022-12-07T09:59:09;4.20;;;1.90;;
12663;SDS011;6396;58.490;15.528;2022-12-07T10:01:43;2.40;;;1.90;;
12663;SDS011;6396;58.490;15.528;2022-12-07T10:04:11;2.57;;;1.80;;
12663;SDS011;6396;58.490;15.528;2022-12-07T10:06:41;3.73;;;2.00;;
12663;SDS011;6396;58.490;15.528;2022-12-07T10:09:09;3.17;;;1.70;;
12663;SDS011;6396;58.490;15.528;2022-12-07T10:14:29;4.77;;;2.13;;
12663;SDS011;6396;58.490;15.528;2022-12-07T10:16:57;3.73;;;1.90;;
12663;SDS011;6396;58.490;15.528;2022-12-07T10:19:25;4.23;;;2.50;;
12663;SDS011;6396;58.490;15.528;2022-12-07T10:22:00;2.80;;;1.80;;
12663;SDS011;6396;58.490;15.528;2022-12-07T10:24:28;5.50;;;2.40;;
12663;SDS011;6396;58.490;15.528;2022-12-07T10:26:56;5.13;;;2.07;;
12663;SDS011;6396;58.490;15.528;2022-12-07T10:29:23;4.03;;;2.00;;
12663;SDS011;6396;58.490;15.528;2022-12-07T10:31:56;5.53;;;2.30;;
12663;SDS011;6396;58.490;15.528;2022-12-07T10:34:25;4.37;;;1.90;;
12663;SDS011;6396;58.490;15.528;2022-12-07T10:36:54;6.20;;;2.30;;
12663;SDS011;6396;58.490;15.528;2022-12-07T10:39:40;4.50;;;2.23;;
12663;SDS011;6396;58.490;15.528;2022-12-07T10:42:15;4.33;;;2.20;;
12663;SDS011;6396;58.490;15.528;2022-12-07T10:44:44;3.43;;;1.90;;
12663;SDS011;6396;58.490;15.528;2022-12-07T10:50:22;3.97;;;1.80;;
12663;SDS011;6396;58.490;15.528;2022-12-07T10:53:07;3.63;;;1.83;;
12663;SDS011;6396;58.490;15.528;2022-12-07T10:55:52;4.67;;;1.83;;
12663;SDS011;6396;58.490;15.528;2022-12-07T10:58:31;2.77;;;1.80;;
12663;SDS011;6396;58.490;15.528;2022-12-07T11:01:11;4.00;;;2.10;;
12663;SDS011;6396;58.490;15.528;2022-12-07T11:03:46;2.40;;;1.70;;
12663;SDS011;6396;58.490;15.528;2022-12-07T11:06:23;3.30;;;1.77;;
12663;SDS011;6396;58.490;15.528;2022-12-07T11:08:59;2.93;;;1.83;;
12663;SDS011;6396;58.490;15.528;2022-12-07T11:11:38;1.83;;;1.37;;
12663;SDS011;6396;58.490;15.528;2022-12-07T11:14:15;2.77;;;1.63;;
12663;SDS011;6396;58.490;15.528;2022-12-07T11:16:52;4.27;;;1.60;;
12663;SDS011;6396;58.490;15.528;2022-12-07T11:19:31;5.73;;;1.90;;
12663;SDS011;6396;58.490;15.528;2022-12-07T11:22:09;5.43;;;1.83;;
12663;SDS011;6396;58.490;15.528;2022-12-07T11:24:46;4.53;;;1.70;;
12663;SDS011;6396;58.490;15.528;2022-12-07T11:27:22;4.20;;;1.80;;
12663;SDS011;6396;58.490;15.528;2022-12-07T11:30:00;2.90;;;2.03;;
12663;SDS011;6396;58.490;15.528;2022-12-07T11:32:40;3.40;;;1.77;;
12663;SDS011;6396;58.490;15.528;2022-12-07T11:35:24;3.30;;;2.10;;
12663;SDS011;6396;58.490;15.528;2022-12-07T11:38:07;3.93;;;1.90;;
12663;SDS011;6396;58.490;15.528;2022-12-07T11:40:37;5.03;;;2.13;;
12663;SDS011;6396;58.490;15.528;2022-12-07T11:43:10;8.73;;;2.50;;
12663;SDS011;6396;58.490;15.528;2022-12-07T11:45:41;4.07;;;2.30;;
12663;SDS011;6396;58.490;15.528;2022-12-07T11:48:13;6.50;;;2.80;;
12663;SDS011;6396;58.490;15.528;2022-12-07T11:50:47;4.33;;;1.70;;
12663;SDS011;6396;58.490;15.528;2022-12-07T11:53:19;6.57;;;2.37;;
12663;SDS011;6396;58.490;15.528;2022-12-07T11:55:52;5.17;;;1.80;;
12663;SDS011;6396;58.490;15.528;2022-12-07T11:58:25;7.10;;;2.17;;
12663;SDS011;6396;58.490;15.528;2022-12-07T12:01:14;3.33;;;1.93;;
12663;SDS011;6396;58.490;15.528;2022-12-07T12:03:53;3.93;;;2.00;;
12663;SDS011;6396;58.490;15.528;2022-12-07T12:06:29;3.53;;;1.70;;
12663;SDS011;6396;58.490;15.528;2022-12-07T12:08:58;5.30;;;1.77;;
12663;SDS011;6396;58.490;15.528;2022-12-07T12:11:36;3.50;;;1.60;;
12663;SDS011;6396;58.490;15.528;2022-12-07T12:14:24;7.13;;;1.80;;
12663;SDS011;6396;58.490;15.528;2022-12-07T12:17:06;4.20;;;1.57;;
12663;SDS011;6396;58.490;15.528;2022-12-07T12:20:04;3.77;;;1.77;;
12663;SDS011;6396;58.490;15.528;2022-12-07T12:22:43;4.40;;;1.77;;
12663;SDS011;6396;58.490;15.528;2022-12-07T12:25:15;2.60;;;1.50;;
12663;SDS011;6396;58.490;15.528;2022-12-07T12:27:47;2.97;;;1.60;;
12663;SDS011;6396;58.490;15.528;2022-12-07T12:30:32;2.50;;;1.47;;
12663;SDS011;6396;58.490;15.528;2022-12-07T12:33:02;2.57;;;1.70;;
12663;SDS011;6396;58.490;15.528;2022-12-07T12:35:32;4.80;;;1.60;;
12663;SDS011;6396;58.490;15.528;2022-12-07T12:40:52;4.87;;;1.80;;
12663;SDS011;6396;58.490;15.528;2022-12-07T12:49:32;3.00;;;1.77;;
12663;SDS011;6396;58.490;15.528;2022-12-07T12:52:01;7.80;;;2.10;;
12663;SDS011;6396;58.490;15.528;2022-12-07T12:55:20;2.23;;;1.57;;
12663;SDS011;6396;58.490;15.528;2022-12-07T13:04:12;2.73;;;1.30;;
12663;SDS011;6396;58.490;15.528;2022-12-07T13:06:43;2.97;;;1.60;;
12663;SDS011;6396;58.490;15.528;2022-12-07T13:09:17;3.90;;;1.60;;
12663;SDS011;6396;58.490;15.528;2022-12-07T13:11:49;3.83;;;1.80;;
12663;SDS011;6396;58.490;15.528;2022-12-07T13:23:18;1.80;;;1.40;;
12663;SDS011;6396;58.490;15.528;2022-12-07T13:25:49;4.43;;;1.53;;
12663;SDS011;6396;58.490;15.528;2022-12-07T13:28:23;3.00;;;1.77;;
12663;SDS011;6396;58.490;15.528;2022-12-07T13:31:00;5.93;;;1.50;;
12663;SDS011;6396;58.490;15.528;2022-12-07T13:33:42;2.07;;;1.60;;
12663;SDS011;6396;58.490;15.528;2022-12-07T13:36:12;2.20;;;1.50;;
12663;SDS011;6396;58.490;15.528;2022-12-07T13:38:48;2.00;;;1.30;;
12663;SDS011;6396;58.490;15.528;2022-12-07T13:41:17;2.67;;;1.83;;
12663;SDS011;6396;58.490;15.528;2022-12-07T13:43:50;3.80;;;2.00;;
12663;SDS011;6396;58.490;15.528;2022-12-07T13:46:20;5.37;;;1.80;;
12663;SDS011;6396;58.490;15.528;2022-12-07T13:48:52;5.03;;;1.87;;
12663;SDS011;6396;58.490;15.528;2022-12-07T13:51:21;2.03;;;1.60;;
12663;SDS011;6396;58.490;15.528;2022-12-07T13:53:50;3.43;;;1.60;;
12663;SDS011;6396;58.490;15.528;2022-12-07T13:56:20;3.63;;;1.53;;
12663;SDS011;6396;58.490;15.528;2022-12-07T13:58:52;3.33;;;1.60;;
12663;SDS011;6396;58.490;15.528;2022-12-07T14:01:20;3.00;;;1.40;;
12663;SDS011;6396;58.490;15.528;2022-12-07T14:03:47;3.13;;;1.60;;
12663;SDS011;6396;58.490;15.528;2022-12-07T14:06:15;3.07;;;1.43;;
12663;SDS011;6396;58.490;15.528;2022-12-07T14:08:44;2.60;;;1.80;;
12663;SDS011;6396;58.490;15.528;2022-12-07T14:11:13;2.73;;;1.60;;
12663;SDS011;6396;58.490;15.528;2022-12-07T14:13:50;2.47;;;1.40;;
12663;SDS011;6396;58.490;15.528;2022-12-07T14:16:24;4.17;;;1.70;;
12663;SDS011;6396;58.490;15.528;2022-12-07T14:18:54;2.67;;;1.60;;
12663;SDS011;6396;58.490;15.528;2022-12-07T14:21:22;2.87;;;1.60;;
12663;SDS011;6396;58.490;15.528;2022-12-07T14:26:45;2.80;;;1.23;;
12663;SDS011;6396;58.490;15.528;2022-12-07T14:29:20;2.87;;;1.23;;
12663;SDS011;6396;58.490;15.528;2022-12-07T14:31:55;4.23;;;1.60;;
12663;SDS011;6396;58.490;15.528;2022-12-07T14:34:24;2.20;;;1.20;;
12663;SDS011;6396;58.490;15.528;2022-12-07T14:36:51;1.47;;;1.37;;
12663;SDS011;6396;58.490;15.528;2022-12-07T14:39:18;3.03;;;1.63;;
12663;SDS011;6396;58.490;15.528;2022-12-07T14:41:45;5.73;;;1.93;;
12663;SDS011;6396;58.490;15.528;2022-12-07T14:44:20;3.40;;;1.57;;
12663;SDS011;6396;58.490;15.528;2022-12-07T14:46:48;3.97;;;1.67;;
12663;SDS011;6396;58.490;15.528;2022-12-07T14:49:15;2.40;;;1.50;;
12663;SDS011;6396;58.490;15.528;2022-12-07T14:51:43;2.83;;;1.57;;
12663;SDS011;6396;58.490;15.528;2022-12-07T14:54:13;2.83;;;1.60;;
12663;SDS011;6396;58.490;15.528;2022-12-07T14:56:43;3.07;;;1.50;;
12663;SDS011;6396;58.490;15.528;2022-12-07T14:59:11;3.50;;;1.50;;
12663;SDS011;6396;58.490;15.528;2022-12-07T15:01:39;3.23;;;1.83;;
12663;SDS011;6396;58.490;15.528;2022-12-07T15:04:06;3.57;;;1.60;;
12663;SDS011;6396;58.490;15.528;2022-12-07T15:06:33;3.13;;;1.40;;
12663;SDS011;6396;58.490;15.528;2022-12-07T15:09:00;1.77;;;1.30;;
12663;SDS011;6396;58.490;15.528;2022-12-07T15:11:26;2.53;;;1.50;;
12663;SDS011;6396;58.490;15.528;2022-12-07T15:13:53;2.93;;;1.60;;
12663;SDS011;6396;58.490;15.528;2022-12-07T15:16:36;2.10;;;1.70;;
12663;SDS011;6396;58.490;15.528;2022-12-07T15:19:08;3.53;;;1.90;;
12663;SDS011;6396;58.490;15.528;2022-12-07T15:21:38;2.03;;;1.53;;
12663;SDS011;6396;58.490;15.528;2022-12-07T15:24:05;6.50;;;1.90;;
12663;SDS011;6396;58.490;15.528;2022-12-07T15:26:32;3.77;;;2.60;;
12663;SDS011;6396;58.490;15.528;2022-12-07T15:29:00;3.90;;;2.33;;
12663;SDS011;6396;58.490;15.528;2022-12-07T15:31:26;1.80;;;1.63;;
12663;SDS011;6396;58.490;15.528;2022-12-07T15:33:53;5.10;;;2.17;;
12663;SDS011;6396;58.490;15.528;2022-12-07T15:36:22;5.03;;;2.00;;
12663;SDS011;6396;58.490;15.528;2022-12-07T15:38:52;3.70;;;1.97;;
12663;SDS011;6396;58.490;15.528;2022-12-07T15:41:19;1.90;;;1.70;;
12663;SDS011;6396;58.490;15.528;2022-12-07T15:43:46;6.00;;;2.27;;